Mont Vernon, New Hampshire
Current Conditions -  °F | °C
As of 10:53 PM on Wednesday 28 Jan 2015 (Local Time) from KMHT Reporting Station
Clear Clear  
Wind Chill:   Ceiling: Unl
Heat Index: 12°   Visibility: 10mi
Dew Point: -3°   Wind: 6mph
Humidity: 51%   Direction: 330°NNW
Pressure: 30.2"   Gusts: NA
Location:  42.89°N, 71.67°W
Report Text: KMHT 290353Z 33005KT 10SM CLR M11/M19 A3020 RMK AO2 SLP251 T11111194
Loading
Personal Weather Stations






























Interactive Weather Map New forecast layout! Learn more

10-Day Weather Forecast

Advertisements
Track Severe Weather on mobile